PWSweather.com
Personal Weather Stations
Station Observations
KOHROME3
Rome, OH 44085

Rome, OH 44085

Lat: 41.631, Lon: -80.828

Elevation: 872

Station Type: Ambient Weather WS-2902 Osprey

http://44085weather.com

High Low Average
Temperature 14.0°F-10.0°C -7.6°F-22.0°C 6.8°F-14.0°C
Dew Point 14.0°F-10.0°C -31.1°F-35.1°C -10.9°F-23.8°C
Winds Calm Calm Calm Calm Calm NWCalm NW
Wind Gusts -- -- --
Humidity 100% 13% 49%
Pressure 30.53 in1033.9 mb 30.39 in1029.1 mb -
Precipitation 0.04 in1.0 mm - -
Hour Temp Dew Point Humidity Winds Wind Gusts Pressure Precip Precip Rate Daily Precip Total
12:00 AM -1.3°F-18.5°C -12.9°F-24.9°C 57% Calm Calm -- 30.48 in1032.2 mb - 0.00 in0.0 mm 0.04 in1.0 mm
12:10 AM -1.1°F-18.4°C -12.4°F-24.7°C 58% Calm Calm -- 30.48 in1032.2 mb - 0.00 in0.0 mm 0.04 in1.0 mm
12:15 AM -1.1°F-18.4°C -13.1°F-25.1°C 56% Calm Calm -- 30.48 in1032.2 mb - 0.00 in0.0 mm 0.04 in1.0 mm
12:20 AM -0.9°F-18.3°C -12.9°F-24.9°C 56% Calm Calm -- 30.48 in1032.2 mb - 0.00 in0.0 mm 0.04 in1.0 mm
12:25 AM -1.3°F-18.5°C -11.2°F-24.0°C 62% Calm Calm -- 30.48 in1032.2 mb - 0.00 in0.0 mm 0.04 in1.0 mm
12:30 AM -1.5°F-18.6°C -11.3°F-24.1°C 62% Calm Calm -- 30.48 in1032.2 mb - 0.00 in0.0 mm 0.04 in1.0 mm
12:35 AM -1.5°F-18.6°C -14.9°F-26.1°C 52% Calm Calm -- 30.48 in1032.2 mb - 0.00 in0.0 mm 0.04 in1.0 mm
12:40 AM -2.0°F-18.9°C -12.9°F-24.9°C 59% Calm Calm -- 30.48 in1032.2 mb - 0.00 in0.0 mm 0.04 in1.0 mm
12:45 AM -2.4°F-19.1°C -9.5°F-23.1°C 71% Calm Calm -- 30.48 in1032.2 mb - 0.00 in0.0 mm 0.04 in1.0 mm
12:50 AM -3.6°F-19.8°C -9.3°F-22.9°C 76% Calm Calm -- 30.48 in1032.2 mb - 0.00 in0.0 mm 0.04 in1.0 mm
12:55 AM -3.6°F-19.8°C -9.3°F-22.9°C 76% Calm Calm -- 30.48 in1032.2 mb - 0.00 in0.0 mm 0.04 in1.0 mm
01:00 AM -3.5°F-19.7°C -11.1°F-23.9°C 69% Calm Calm -- 30.48 in1032.2 mb - 0.00 in0.0 mm 0.00 in0.0 mm
01:10 AM -4.0°F-20.0°C -13.1°F-25.1°C 64% Calm Calm -- 30.48 in1032.2 mb - 0.00 in0.0 mm 0.00 in0.0 mm
01:15 AM -4.0°F-20.0°C -13.1°F-25.1°C 64% Calm Calm -- 30.48 in1032.2 mb - 0.00 in0.0 mm 0.00 in0.0 mm
01:20 AM -4.5°F-20.3°C -9.4°F-23.0°C 79% Calm Calm -- 30.48 in1032.2 mb - 0.00 in0.0 mm 0.00 in0.0 mm
01:25 AM -5.3°F-20.7°C -13.1°F-25.1°C 68% Calm Calm -- 30.48 in1032.2 mb - 0.00 in0.0 mm 0.00 in0.0 mm
01:30 AM -4.9°F-20.5°C -13.1°F-25.1°C 67% Calm Calm -- 30.48 in1032.2 mb - 0.00 in0.0 mm 0.00 in0.0 mm
01:35 AM -5.1°F-20.6°C -11.2°F-24.0°C 74% Calm Calm -- 30.48 in1032.2 mb - 0.00 in0.0 mm 0.00 in0.0 mm
01:40 AM -5.1°F-20.6°C -11.3°F-24.1°C 74% Calm Calm -- 30.48 in1032.2 mb - 0.00 in0.0 mm 0.00 in0.0 mm
01:45 AM -5.3°F-20.7°C -15.0°F-26.1°C 62% Calm Calm -- 30.48 in1032.2 mb - 0.00 in0.0 mm 0.00 in0.0 mm
01:50 AM -5.4°F-20.8°C -9.5°F-23.1°C 82% Calm Calm -- 30.48 in1032.2 mb - 0.00 in0.0 mm 0.00 in0.0 mm
01:55 AM -5.8°F-21.0°C -11.1°F-23.9°C 77% Calm Calm -- 30.48 in1032.2 mb - 0.00 in0.0 mm 0.00 in0.0 mm
02:00 AM -5.8°F-21.0°C -11.1°F-23.9°C 77% Calm Calm -- 30.48 in1032.2 mb - 0.00 in0.0 mm 0.00 in0.0 mm
02:10 AM -5.6°F-20.9°C -11.2°F-24.0°C 76% Calm Calm -- 30.48 in1032.2 mb - 0.00 in0.0 mm 0.00 in0.0 mm
02:15 AM -6.0°F-21.1°C -12.9°F-24.9°C 71% Calm Calm -- 30.48 in1032.2 mb - 0.00 in0.0 mm 0.00 in0.0 mm
02:20 AM -6.0°F-21.1°C -14.7°F-25.9°C 65% Calm Calm -- 30.48 in1032.2 mb - 0.00 in0.0 mm 0.00 in0.0 mm
02:25 AM -5.8°F-21.0°C -14.8°F-26.0°C 64% Calm Calm -- 30.48 in1032.2 mb - 0.00 in0.0 mm 0.00 in0.0 mm
02:30 AM -5.6°F-20.9°C -12.9°F-24.9°C 70% Calm Calm -- 30.48 in1032.2 mb - 0.00 in0.0 mm 0.00 in0.0 mm
02:35 AM -6.3°F-21.3°C -11.2°F-24.0°C 79% Calm Calm -- 30.48 in1032.2 mb - 0.00 in0.0 mm 0.00 in0.0 mm
02:40 AM -7.1°F-21.7°C -11.1°F-23.9°C 82% Calm Calm -- 30.48 in1032.2 mb - 0.00 in0.0 mm 0.00 in0.0 mm
02:45 AM -7.2°F-21.8°C -11.2°F-24.0°C 82% Calm Calm -- 30.48 in1032.2 mb - 0.00 in0.0 mm 0.00 in0.0 mm
02:50 AM -7.6°F-22.0°C -11.1°F-23.9°C 84% Calm Calm -- 30.48 in1032.2 mb - 0.00 in0.0 mm 0.00 in0.0 mm
02:55 AM -7.6°F-22.0°C -16.6°F-27.0°C 64% Calm Calm -- 30.48 in1032.2 mb - 0.00 in0.0 mm 0.00 in0.0 mm
03:00 AM -7.4°F-21.9°C -13.2°F-25.1°C 75% Calm Calm -- 30.48 in1032.2 mb - 0.00 in0.0 mm 0.00 in0.0 mm
03:10 AM -7.4°F-21.9°C -11.2°F-24.0°C 83% Calm Calm -- 30.48 in1032.2 mb - 0.00 in0.0 mm 0.00 in0.0 mm
03:15 AM -6.9°F-21.6°C -11.2°F-24.0°C 81% Calm Calm -- 30.48 in1032.2 mb - 0.00 in0.0 mm 0.00 in0.0 mm
03:20 AM -6.3°F-21.3°C -11.2°F-24.0°C 79% Calm Calm -- 30.48 in1032.2 mb - 0.00 in0.0 mm 0.00 in0.0 mm
03:25 AM -5.9°F-21.1°C -11.2°F-24.0°C 77% Calm Calm -- 30.48 in1032.2 mb - 0.00 in0.0 mm 0.00 in0.0 mm
03:30 AM -5.8°F-21.0°C -11.1°F-23.9°C 77% Calm Calm -- 30.48 in1032.2 mb - 0.00 in0.0 mm 0.00 in0.0 mm
03:35 AM -5.4°F-20.8°C -11.3°F-24.1°C 75% Calm Calm -- 30.48 in1032.2 mb - 0.00 in0.0 mm 0.00 in0.0 mm
03:40 AM -4.9°F-20.5°C -11.1°F-23.9°C 74% Calm Calm -- 30.48 in1032.2 mb - 0.00 in0.0 mm 0.00 in0.0 mm
03:45 AM -3.8°F-19.9°C -9.5°F-23.1°C 76% Calm Calm -- 30.48 in1032.2 mb - 0.00 in0.0 mm 0.00 in0.0 mm
03:50 AM -3.8°F-19.9°C -9.5°F-23.1°C 76% Calm Calm -- 30.48 in1032.2 mb - 0.00 in0.0 mm 0.00 in0.0 mm
03:55 AM -3.6°F-19.8°C -9.3°F-22.9°C 76% Calm Calm -- 30.48 in1032.2 mb - 0.00 in0.0 mm 0.00 in0.0 mm
04:00 AM -3.1°F-19.5°C -9.3°F-22.9°C 74% Calm Calm -- 30.48 in1032.2 mb - 0.00 in0.0 mm 0.00 in0.0 mm
04:10 AM -2.5°F-19.2°C -10.5°F-23.6°C 68% Calm Calm -- 30.48 in1032.2 mb - 0.00 in0.0 mm 0.00 in0.0 mm
04:15 AM -2.4°F-19.1°C -11.3°F-24.1°C 65% Calm Calm -- 30.48 in1032.2 mb - 0.00 in0.0 mm 0.00 in0.0 mm
04:20 AM -2.0°F-18.9°C -11.2°F-24.0°C 64% Calm Calm -- 30.48 in1032.2 mb - 0.00 in0.0 mm 0.00 in0.0 mm
04:25 AM -1.7°F-18.7°C -11.2°F-24.0°C 63% Calm Calm -- 30.48 in1032.2 mb - 0.00 in0.0 mm 0.00 in0.0 mm
04:30 AM -1.3°F-18.5°C -9.3°F-22.9°C 68% Calm Calm -- 30.48 in1032.2 mb - 0.00 in0.0 mm 0.00 in0.0 mm
04:35 AM -1.3°F-18.5°C -9.3°F-22.9°C 68% Calm Calm -- 30.48 in1032.2 mb - 0.00 in0.0 mm 0.00 in0.0 mm
04:40 AM -1.1°F-18.4°C -9.4°F-23.0°C 67% Calm Calm -- 30.48 in1032.2 mb - 0.00 in0.0 mm 0.00 in0.0 mm
04:45 AM -0.8°F-18.2°C -9.4°F-23.0°C 66% Calm Calm -- 30.48 in1032.2 mb - 0.00 in0.0 mm 0.00 in0.0 mm
04:50 AM -0.6°F-18.1°C -11.2°F-24.0°C 60% Calm Calm -- 30.48 in1032.2 mb - 0.00 in0.0 mm 0.00 in0.0 mm
04:55 AM -0.5°F-18.1°C -10.7°F-23.7°C 61% Calm Calm -- 30.48 in1032.2 mb - 0.00 in0.0 mm 0.00 in0.0 mm
05:00 AM -0.2°F-17.9°C -9.5°F-23.1°C 64% Calm Calm -- 30.48 in1032.2 mb - 0.00 in0.0 mm 0.00 in0.0 mm
05:10 AM -0.2°F-17.9°C -9.5°F-23.1°C 64% Calm Calm -- 30.48 in1032.2 mb - 0.00 in0.0 mm 0.00 in0.0 mm
05:15 AM -0.1°F-17.8°C -9.4°F-23.0°C 64% Calm Calm -- 30.48 in1032.2 mb - 0.00 in0.0 mm 0.00 in0.0 mm
05:20 AM 0.0°F-17.8°C -9.3°F-22.9°C 64% Calm Calm -- 30.48 in1032.2 mb - 0.00 in0.0 mm 0.00 in0.0 mm
05:25 AM 0.3°F-17.6°C -11.3°F-24.1°C 57% Calm Calm -- 30.48 in1032.2 mb - 0.00 in0.0 mm 0.00 in0.0 mm
05:30 AM 0.5°F-17.5°C -9.5°F-23.1°C 62% Calm Calm -- 30.48 in1032.2 mb - 0.00 in0.0 mm 0.00 in0.0 mm
05:35 AM 0.7°F-17.4°C -9.3°F-22.9°C 62% Calm Calm -- 30.48 in1032.2 mb - 0.00 in0.0 mm 0.00 in0.0 mm
05:40 AM 0.7°F-17.4°C -9.3°F-22.9°C 62% Calm Calm -- 30.48 in1032.2 mb - 0.00 in0.0 mm 0.00 in0.0 mm
05:45 AM 0.9°F-17.3°C -11.2°F-24.0°C 56% Calm Calm -- 30.48 in1032.2 mb - 0.00 in0.0 mm 0.00 in0.0 mm
05:50 AM 1.2°F-17.1°C -9.5°F-23.1°C 60% Calm Calm -- 30.48 in1032.2 mb - 0.00 in0.0 mm 0.00 in0.0 mm
05:55 AM 1.4°F-17.0°C -11.1°F-23.9°C 55% Calm Calm -- 30.48 in1032.2 mb - 0.00 in0.0 mm 0.00 in0.0 mm
06:00 AM 1.5°F-16.9°C -11.0°F-23.9°C 55% Calm Calm -- 30.48 in1032.2 mb - 0.00 in0.0 mm 0.00 in0.0 mm
06:10 AM 1.8°F-16.8°C -9.3°F-22.9°C 59% Calm Calm -- 30.48 in1032.2 mb - 0.00 in0.0 mm 0.00 in0.0 mm
06:15 AM 1.9°F-16.7°C -11.3°F-24.1°C 53% Calm Calm -- 30.48 in1032.2 mb - 0.00 in0.0 mm 0.00 in0.0 mm
06:20 AM 2.1°F-16.6°C -11.1°F-23.9°C 53% Calm Calm -- 30.48 in1032.2 mb - 0.00 in0.0 mm 0.00 in0.0 mm
06:25 AM 2.1°F-16.6°C -11.1°F-23.9°C 53% Calm Calm -- 30.48 in1032.2 mb - 0.00 in0.0 mm 0.00 in0.0 mm
06:30 AM 2.1°F-16.6°C -11.1°F-23.9°C 53% Calm Calm -- 30.48 in1032.2 mb - 0.00 in0.0 mm 0.00 in0.0 mm
06:35 AM 2.3°F-16.5°C -12.9°F-24.9°C 48% Calm Calm -- 30.48 in1032.2 mb - 0.00 in0.0 mm 0.00 in0.0 mm
06:40 AM 2.7°F-16.3°C -13.0°F-25.0°C 47% Calm Calm -- 30.48 in1032.2 mb - 0.00 in0.0 mm 0.00 in0.0 mm
06:45 AM 2.7°F-16.3°C -13.0°F-25.0°C 47% Calm Calm -- 30.48 in1032.2 mb - 0.00 in0.0 mm 0.00 in0.0 mm
06:50 AM 2.8°F-16.2°C -12.9°F-24.9°C 47% Calm Calm -- 30.48 in1032.2 mb - 0.00 in0.0 mm 0.00 in0.0 mm
06:55 AM 3.2°F-16.0°C -14.8°F-26.0°C 42% Calm Calm -- 30.48 in1032.2 mb - 0.00 in0.0 mm 0.00 in0.0 mm
07:00 AM 3.7°F-15.7°C -16.8°F-27.1°C 37% Calm Calm -- 30.45 in1031.2 mb - 0.00 in0.0 mm 0.00 in0.0 mm
07:10 AM 4.3°F-15.4°C -18.5°F-28.1°C 33% Calm Calm -- 30.45 in1031.2 mb - 0.00 in0.0 mm 0.00 in0.0 mm
07:15 AM 4.6°F-15.2°C -16.5°F-26.9°C 36% Calm Calm -- 30.45 in1031.2 mb - 0.00 in0.0 mm 0.00 in0.0 mm
07:20 AM 4.8°F-15.1°C -18.6°F-28.1°C 32% Calm Calm -- 30.45 in1031.2 mb - 0.00 in0.0 mm 0.00 in0.0 mm
07:25 AM 5.0°F-15.0°C -16.8°F-27.1°C 35% Calm Calm -- 30.45 in1031.2 mb - 0.00 in0.0 mm 0.00 in0.0 mm
07:30 AM 5.0°F-15.0°C -16.7°F-27.1°C 35% Calm Calm -- 30.45 in1031.2 mb - 0.00 in0.0 mm 0.00 in0.0 mm
07:35 AM 5.0°F-15.0°C -16.7°F-27.1°C 35% Calm Calm -- 30.45 in1031.2 mb - 0.00 in0.0 mm 0.00 in0.0 mm
07:40 AM 4.8°F-15.1°C -16.3°F-26.8°C 36% Calm Calm -- 30.45 in1031.2 mb - 0.00 in0.0 mm 0.00 in0.0 mm
07:45 AM 4.8°F-15.1°C -18.6°F-28.1°C 32% Calm Calm -- 30.45 in1031.2 mb - 0.00 in0.0 mm 0.00 in0.0 mm
07:50 AM 4.8°F-15.1°C -18.1°F-27.8°C 33% Calm Calm -- 30.44 in1030.8 mb - 0.00 in0.0 mm 0.00 in0.0 mm
07:55 AM 4.8°F-15.1°C -14.8°F-26.0°C 39% Calm Calm -- 30.42 in1030.1 mb - 0.00 in0.0 mm 0.00 in0.0 mm
08:00 AM 4.8°F-15.1°C -14.8°F-26.0°C 39% Calm Calm -- 30.48 in1032.2 mb - 0.00 in0.0 mm 0.00 in0.0 mm
08:10 AM 5.3°F-14.8°C -18.8°F-28.2°C 31% Calm Calm -- 30.42 in1030.1 mb - 0.00 in0.0 mm 0.00 in0.0 mm
08:15 AM 5.5°F-14.7°C -18.6°F-28.1°C 31% Calm Calm -- 30.42 in1030.1 mb - 0.00 in0.0 mm 0.00 in0.0 mm
08:20 AM 6.3°F-14.3°C -18.6°F-28.1°C 30% Calm Calm -- 30.42 in1030.1 mb - 0.00 in0.0 mm 0.00 in0.0 mm
08:25 AM 6.6°F-14.1°C -21.8°F-29.9°C 25% Calm Calm -- 30.42 in1030.1 mb - 0.00 in0.0 mm 0.00 in0.0 mm
08:30 AM 7.1°F-13.8°C -22.2°F-30.1°C 24% Calm Calm -- 30.42 in1030.1 mb - 0.00 in0.0 mm 0.00 in0.0 mm
08:35 AM 7.2°F-13.8°C -22.1°F-30.1°C 24% Calm Calm -- 30.42 in1030.1 mb - 0.00 in0.0 mm 0.00 in0.0 mm
08:40 AM 7.5°F-13.6°C -21.8°F-29.9°C 24% Calm Calm -- 30.42 in1030.1 mb - 0.00 in0.0 mm 0.00 in0.0 mm
08:45 AM 7.7°F-13.5°C -21.7°F-29.8°C 24% Calm Calm -- 30.42 in1030.1 mb - 0.00 in0.0 mm 0.00 in0.0 mm
08:50 AM 7.7°F-13.5°C -21.7°F-29.8°C 24% Calm Calm -- 30.42 in1030.1 mb - 0.00 in0.0 mm 0.00 in0.0 mm
08:55 AM 7.7°F-13.5°C -21.7°F-29.8°C 24% Calm Calm -- 30.42 in1030.1 mb - 0.00 in0.0 mm 0.00 in0.0 mm
09:00 AM 7.7°F-13.5°C -20.1°F-28.9°C 26% Calm Calm -- 30.42 in1030.1 mb - 0.00 in0.0 mm 0.00 in0.0 mm
09:10 AM 7.2°F-13.8°C -19.9°F-28.8°C 27% Calm Calm -- 30.48 in1032.2 mb - 0.00 in0.0 mm 0.00 in0.0 mm
09:15 AM 7.2°F-13.8°C -19.9°F-28.8°C 27% Calm Calm -- 30.48 in1032.2 mb - 0.00 in0.0 mm 0.00 in0.0 mm
09:20 AM 7.3°F-13.7°C -22.0°F-30.0°C 24% Calm Calm -- 30.42 in1030.1 mb - 0.00 in0.0 mm 0.00 in0.0 mm
09:25 AM 7.5°F-13.6°C -20.3°F-29.1°C 26% Calm Calm -- 30.42 in1030.1 mb - 0.00 in0.0 mm 0.00 in0.0 mm
09:30 AM 7.5°F-13.6°C -20.3°F-29.1°C 26% Calm Calm -- 30.42 in1030.1 mb - 0.00 in0.0 mm 0.00 in0.0 mm
09:35 AM 7.5°F-13.6°C -20.3°F-29.1°C 26% Calm Calm -- 30.42 in1030.1 mb - 0.00 in0.0 mm 0.00 in0.0 mm
09:40 AM 7.5°F-13.6°C -16.9°F-27.2°C 31% Calm Calm -- 30.42 in1030.1 mb - 0.00 in0.0 mm 0.00 in0.0 mm
09:45 AM 7.7°F-13.5°C -16.7°F-27.1°C 31% Calm Calm -- 30.42 in1030.1 mb - 0.00 in0.0 mm 0.00 in0.0 mm
09:50 AM 8.1°F-13.3°C -16.4°F-26.9°C 31% Calm Calm -- 30.42 in1030.1 mb - 0.00 in0.0 mm 0.00 in0.0 mm
09:55 AM 8.1°F-13.3°C -16.4°F-26.9°C 31% Calm Calm -- 30.42 in1030.1 mb - 0.00 in0.0 mm 0.00 in0.0 mm
10:00 AM 8.4°F-13.1°C -14.8°F-26.0°C 33% Calm Calm -- 30.42 in1030.1 mb - 0.00 in0.0 mm 0.00 in0.0 mm
10:10 AM 9.0°F-12.8°C -15.0°F-26.1°C 32% Calm Calm -- 30.48 in1032.2 mb - 0.00 in0.0 mm 0.00 in0.0 mm
10:15 AM 9.0°F-12.8°C -15.0°F-26.1°C 32% Calm Calm -- 30.48 in1032.2 mb - 0.00 in0.0 mm 0.00 in0.0 mm
10:20 AM 9.3°F-12.6°C -11.2°F-24.0°C 38% Calm Calm -- 30.48 in1032.2 mb - 0.00 in0.0 mm 0.00 in0.0 mm
10:25 AM 9.9°F-12.3°C -13.0°F-25.0°C 34% Calm Calm -- 30.48 in1032.2 mb - 0.00 in0.0 mm 0.00 in0.0 mm
10:30 AM 9.9°F-12.3°C -11.3°F-24.1°C 37% Calm Calm -- 30.48 in1032.2 mb - 0.00 in0.0 mm 0.00 in0.0 mm
10:35 AM 9.9°F-12.3°C -11.3°F-24.1°C 37% Calm Calm -- 30.48 in1032.2 mb - 0.00 in0.0 mm 0.00 in0.0 mm
10:40 AM 9.9°F-12.3°C -11.3°F-24.1°C 37% Calm Calm -- 30.48 in1032.2 mb - 0.00 in0.0 mm 0.00 in0.0 mm
10:45 AM 10.2°F-12.1°C -5.6°F-20.9°C 48% Calm Calm -- 30.42 in1030.1 mb - 0.00 in0.0 mm 0.00 in0.0 mm
10:50 AM 10.6°F-11.9°C -4.0°F-20.0°C 51% Calm Calm -- 30.42 in1030.1 mb - 0.00 in0.0 mm 0.00 in0.0 mm
10:55 AM 10.6°F-11.9°C -4.9°F-20.5°C 49% Calm Calm -- 30.42 in1030.1 mb - 0.00 in0.0 mm 0.00 in0.0 mm
11:00 AM 10.4°F-12.0°C -5.9°F-21.1°C 47% Calm Calm -- 30.42 in1030.1 mb - 0.00 in0.0 mm 0.00 in0.0 mm
11:10 AM 11.7°F-11.3°C 1.5°F-16.9°C 63% Calm Calm -- 30.48 in1032.2 mb - 0.00 in0.0 mm 0.00 in0.0 mm
11:15 AM 11.7°F-11.3°C 2.2°F-16.6°C 65% Calm Calm -- 30.48 in1032.2 mb - 0.00 in0.0 mm 0.00 in0.0 mm
11:20 AM 11.5°F-11.4°C 3.3°F-15.9°C 69% Calm Calm -- 30.48 in1032.2 mb - 0.00 in0.0 mm 0.00 in0.0 mm
11:25 AM 11.8°F-11.2°C 4.8°F-15.1°C 73% Calm Calm -- 30.48 in1032.2 mb - 0.00 in0.0 mm 0.00 in0.0 mm
11:30 AM 11.5°F-11.4°C 5.1°F-14.9°C 75% Calm Calm -- 30.48 in1032.2 mb - 0.00 in0.0 mm 0.00 in0.0 mm
11:35 AM 11.4°F-11.4°C 4.4°F-15.3°C 73% Calm Calm -- 30.48 in1032.2 mb - 0.00 in0.0 mm 0.00 in0.0 mm
11:40 AM 11.3°F-11.5°C 3.1°F-16.1°C 69% Calm Calm -- 30.48 in1032.2 mb - 0.00 in0.0 mm 0.00 in0.0 mm
11:45 AM 12.0°F-11.1°C 5.0°F-15.0°C 73% Calm Calm -- 30.48 in1032.2 mb - 0.00 in0.0 mm 0.00 in0.0 mm
11:50 AM 12.2°F-11.0°C 4.9°F-15.1°C 72% Calm Calm -- 30.48 in1032.2 mb - 0.00 in0.0 mm 0.00 in0.0 mm
11:55 AM 12.2°F-11.0°C 4.9°F-15.1°C 72% Calm Calm -- 30.48 in1032.2 mb - 0.00 in0.0 mm 0.00 in0.0 mm
12:00 PM 12.0°F-11.1°C 5.0°F-15.0°C 73% Calm Calm -- 30.48 in1032.2 mb - 0.00 in0.0 mm 0.00 in0.0 mm
12:10 PM 12.4°F-10.9°C 7.4°F-13.7°C 80% Calm Calm -- 30.48 in1032.2 mb - 0.00 in0.0 mm 0.00 in0.0 mm
12:15 PM 12.6°F-10.8°C 9.4°F-12.6°C 87% Calm Calm -- 30.48 in1032.2 mb - 0.00 in0.0 mm 0.00 in0.0 mm
12:20 PM 12.7°F-10.7°C 10.4°F-12.0°C 90% Calm Calm -- 30.48 in1032.2 mb - 0.00 in0.0 mm 0.00 in0.0 mm
12:25 PM 13.8°F-10.1°C 11.4°F-11.4°C 90% Calm Calm -- 30.48 in1032.2 mb - 0.00 in0.0 mm 0.00 in0.0 mm
12:30 PM 13.1°F-10.5°C 8.6°F-13.0°C 82% Calm Calm -- 30.48 in1032.2 mb - 0.00 in0.0 mm 0.00 in0.0 mm
12:35 PM 13.2°F-10.4°C 8.5°F-13.1°C 81% Calm Calm -- 30.48 in1032.2 mb - 0.00 in0.0 mm 0.00 in0.0 mm
12:40 PM 13.3°F-10.4°C 8.5°F-13.1°C 81% Calm Calm -- 30.48 in1032.2 mb - 0.00 in0.0 mm 0.00 in0.0 mm
12:45 PM 12.9°F-10.6°C 3.4°F-15.9°C 65% Calm Calm -- 30.48 in1032.2 mb - 0.00 in0.0 mm 0.00 in0.0 mm
12:50 PM 12.9°F-10.6°C 9.3°F-12.6°C 85% Calm Calm -- 30.48 in1032.2 mb - 0.00 in0.0 mm 0.00 in0.0 mm
12:55 PM 13.7°F-10.2°C 11.1°F-11.6°C 89% Calm Calm -- 30.43 in1030.5 mb - 0.00 in0.0 mm 0.00 in0.0 mm
01:00 PM 14.0°F-10.0°C 14.0°F-10.0°C 100% Calm Calm -- 30.42 in1030.1 mb - 0.00 in0.0 mm 0.00 in0.0 mm
01:10 PM 12.0°F-11.1°C 6.8°F-14.0°C 79% Calm Calm -- 30.48 in1032.2 mb - 0.00 in0.0 mm 0.00 in0.0 mm
01:15 PM 11.9°F-11.2°C 6.6°F-14.1°C 79% Calm Calm -- 30.48 in1032.2 mb - 0.00 in0.0 mm 0.00 in0.0 mm
01:20 PM 11.8°F-11.2°C 3.3°F-15.9°C 68% Calm Calm -- 30.48 in1032.2 mb - 0.00 in0.0 mm 0.00 in0.0 mm
01:25 PM 12.4°F-10.9°C 5.1°F-14.9°C 72% Calm Calm -- 30.48 in1032.2 mb - 0.00 in0.0 mm 0.00 in0.0 mm
01:30 PM 12.0°F-11.1°C 10.1°F-12.2°C 92% Calm Calm -- 30.48 in1032.2 mb - 0.00 in0.0 mm 0.00 in0.0 mm
01:35 PM 11.9°F-11.2°C 10.2°F-12.1°C 93% Calm Calm -- 30.48 in1032.2 mb - 0.00 in0.0 mm 0.00 in0.0 mm
01:40 PM 11.8°F-11.2°C 6.9°F-13.9°C 80% Calm Calm -- 30.48 in1032.2 mb - 0.00 in0.0 mm 0.00 in0.0 mm
01:45 PM 12.2°F-11.0°C 10.3°F-12.1°C 92% Calm Calm -- 30.48 in1032.2 mb - 0.00 in0.0 mm 0.00 in0.0 mm
01:50 PM 11.7°F-11.3°C 8.5°F-13.1°C 87% Calm Calm -- 30.48 in1032.2 mb - 0.00 in0.0 mm 0.00 in0.0 mm
01:55 PM 12.2°F-11.0°C 10.3°F-12.1°C 92% Calm Calm -- 30.48 in1032.2 mb - 0.00 in0.0 mm 0.00 in0.0 mm
02:00 PM 12.2°F-11.0°C 10.3°F-12.1°C 92% Calm Calm -- 30.48 in1032.2 mb - 0.00 in0.0 mm 0.00 in0.0 mm
02:10 PM 12.4°F-10.9°C 10.5°F-11.9°C 92% Calm Calm -- 30.48 in1032.2 mb - 0.00 in0.0 mm 0.00 in0.0 mm
02:15 PM 12.2°F-11.0°C 12.2°F-11.0°C 100% Calm Calm -- 30.48 in1032.2 mb - 0.00 in0.0 mm 0.00 in0.0 mm
02:20 PM 12.2°F-11.0°C 12.2°F-11.0°C 100% Calm Calm -- 30.48 in1032.2 mb - 0.00 in0.0 mm 0.00 in0.0 mm
02:25 PM 12.2°F-11.0°C 10.3°F-12.1°C 92% Calm Calm -- 30.48 in1032.2 mb - 0.00 in0.0 mm 0.00 in0.0 mm
02:30 PM 11.7°F-11.3°C -0.3°F-17.9°C 58% Calm Calm -- 30.39 in1029.1 mb - 0.00 in0.0 mm 0.00 in0.0 mm
02:35 PM 11.8°F-11.2°C -0.1°F-17.8°C 58% Calm Calm -- 30.39 in1029.1 mb - 0.00 in0.0 mm 0.00 in0.0 mm
02:40 PM 11.8°F-11.2°C -0.1°F-17.8°C 58% Calm Calm -- 30.39 in1029.1 mb - 0.00 in0.0 mm 0.00 in0.0 mm
02:45 PM 12.0°F-11.1°C 0.0°F-17.8°C 58% Calm Calm -- 30.41 in1029.8 mb - 0.00 in0.0 mm 0.00 in0.0 mm
02:50 PM 12.0°F-11.1°C 0.1°F-17.7°C 58% Calm Calm -- 30.42 in1030.1 mb - 0.00 in0.0 mm 0.00 in0.0 mm
02:55 PM 11.7°F-11.3°C 10.5°F-11.9°C 95% Calm Calm -- 30.42 in1030.1 mb - 0.00 in0.0 mm 0.00 in0.0 mm
03:00 PM 12.0°F-11.1°C 10.9°F-11.7°C 95% Calm Calm -- 30.48 in1032.2 mb - 0.00 in0.0 mm 0.00 in0.0 mm
03:10 PM 12.2°F-11.0°C 12.2°F-11.0°C 100% Calm Calm -- 30.48 in1032.2 mb - 0.00 in0.0 mm 0.00 in0.0 mm
03:15 PM 11.7°F-11.3°C 10.5°F-11.9°C 95% Calm Calm -- 30.45 in1031.2 mb - 0.04 in1.0 mm 0.04 in1.0 mm
03:20 PM 11.7°F-11.3°C 8.5°F-13.1°C 87% Calm Calm -- 30.39 in1029.1 mb - 0.00 in0.0 mm 0.04 in1.0 mm
03:25 PM 11.7°F-11.3°C 8.5°F-13.1°C 87% Calm Calm -- 30.39 in1029.1 mb - 0.00 in0.0 mm 0.04 in1.0 mm
03:30 PM 11.7°F-11.3°C 5.0°F-15.0°C 74% Calm Calm -- 30.39 in1029.1 mb - 0.00 in0.0 mm 0.04 in1.0 mm
03:35 PM 11.5°F-11.4°C 1.3°F-17.1°C 63% Calm Calm -- 30.39 in1029.1 mb - 0.00 in0.0 mm 0.04 in1.0 mm
03:40 PM 10.8°F-11.8°C -2.3°F-19.1°C 55% Calm Calm -- 30.39 in1029.1 mb - 0.00 in0.0 mm 0.04 in1.0 mm
03:45 PM 10.8°F-11.8°C -2.3°F-19.1°C 55% Calm Calm -- 30.39 in1029.1 mb - 0.00 in0.0 mm 0.04 in1.0 mm
03:50 PM 10.8°F-11.8°C -11.0°F-23.9°C 36% Calm Calm -- 30.42 in1030.1 mb - 0.00 in0.0 mm 0.04 in1.0 mm
03:55 PM 10.9°F-11.7°C -2.1°F-18.9°C 55% Calm Calm -- 30.42 in1030.1 mb - 0.00 in0.0 mm 0.04 in1.0 mm
04:00 PM 11.5°F-11.4°C 1.3°F-17.1°C 63% Calm Calm -- 30.47 in1031.8 mb - 0.00 in0.0 mm 0.04 in1.0 mm
04:10 PM 11.7°F-11.3°C -7.5°F-21.9°C 41% Calm Calm -- 30.48 in1032.2 mb - 0.00 in0.0 mm 0.04 in1.0 mm
04:15 PM 11.8°F-11.2°C 0.2°F-17.7°C 59% Calm Calm -- 30.42 in1030.1 mb - 0.00 in0.0 mm 0.04 in1.0 mm
04:20 PM 11.8°F-11.2°C 1.3°F-17.1°C 62% Calm Calm -- 30.42 in1030.1 mb - 0.00 in0.0 mm 0.04 in1.0 mm
04:25 PM 11.8°F-11.2°C -5.9°F-21.1°C 44% Calm Calm -- 30.42 in1030.1 mb - 0.00 in0.0 mm 0.04 in1.0 mm
04:30 PM 11.5°F-11.4°C -5.8°F-21.0°C 45% Calm Calm -- 30.42 in1030.1 mb - 0.00 in0.0 mm 0.04 in1.0 mm
04:35 PM 11.1°F-11.6°C -7.5°F-21.9°C 42% Calm Calm -- 30.42 in1030.1 mb - 0.00 in0.0 mm 0.04 in1.0 mm
04:40 PM 11.1°F-11.6°C -11.3°F-24.1°C 35% Calm Calm -- 30.42 in1030.1 mb - 0.00 in0.0 mm 0.04 in1.0 mm
04:45 PM 11.1°F-11.6°C -11.3°F-24.1°C 35% Calm Calm -- 30.42 in1030.1 mb - 0.00 in0.0 mm 0.04 in1.0 mm
04:50 PM 11.1°F-11.6°C -5.7°F-20.9°C 46% Calm Calm -- 30.42 in1030.1 mb - 0.00 in0.0 mm 0.04 in1.0 mm
04:55 PM 10.9°F-11.7°C -2.1°F-18.9°C 55% Calm Calm -- 30.42 in1030.1 mb - 0.00 in0.0 mm 0.04 in1.0 mm
05:00 PM 10.8°F-11.8°C -1.1°F-18.4°C 58% Calm Calm -- 30.45 in1031.2 mb - 0.00 in0.0 mm 0.04 in1.0 mm
05:10 PM 10.9°F-11.7°C -4.1°F-20.1°C 50% Calm Calm -- 30.48 in1032.2 mb - 0.00 in0.0 mm 0.04 in1.0 mm
05:15 PM 10.8°F-11.8°C -3.8°F-19.9°C 51% Calm Calm -- 30.42 in1030.1 mb - 0.00 in0.0 mm 0.04 in1.0 mm
05:20 PM 10.6°F-11.9°C -5.7°F-20.9°C 47% Calm Calm -- 30.42 in1030.1 mb - 0.00 in0.0 mm 0.04 in1.0 mm
05:25 PM 10.4°F-12.0°C -7.7°F-22.1°C 43% Calm Calm -- 30.42 in1030.1 mb - 0.00 in0.0 mm 0.04 in1.0 mm
05:30 PM 10.2°F-12.1°C -10.9°F-23.8°C 37% Calm Calm -- 30.42 in1030.1 mb - 0.00 in0.0 mm 0.04 in1.0 mm
05:35 PM 9.9°F-12.3°C -14.8°F-26.0°C 31% Calm Calm -- 30.45 in1031.2 mb - 0.00 in0.0 mm 0.04 in1.0 mm
05:40 PM 9.9°F-12.3°C -14.2°F-25.7°C 32% Calm Calm -- 30.45 in1031.2 mb - 0.00 in0.0 mm 0.04 in1.0 mm
05:45 PM 9.9°F-12.3°C -13.0°F-25.0°C 34% Calm Calm -- 30.45 in1031.2 mb - 0.00 in0.0 mm 0.04 in1.0 mm
05:50 PM 9.7°F-12.4°C -16.3°F-26.8°C 29% Calm Calm -- 30.45 in1031.2 mb - 0.00 in0.0 mm 0.04 in1.0 mm
05:55 PM 9.7°F-12.4°C -16.3°F-26.8°C 29% Calm Calm -- 30.45 in1031.2 mb - 0.00 in0.0 mm 0.04 in1.0 mm
06:00 PM 9.7°F-12.4°C -16.3°F-26.8°C 29% Calm Calm -- 30.45 in1031.2 mb - 0.00 in0.0 mm 0.04 in1.0 mm
06:10 PM 9.7°F-12.4°C -18.4°F-28.0°C 26% Calm Calm -- 30.45 in1031.2 mb - 0.00 in0.0 mm 0.04 in1.0 mm
06:15 PM 9.7°F-12.4°C -16.3°F-26.8°C 29% Calm Calm -- 30.45 in1031.2 mb - 0.00 in0.0 mm 0.04 in1.0 mm
06:20 PM 9.7°F-12.4°C -16.3°F-26.8°C 29% Calm Calm -- 30.45 in1031.2 mb - 0.00 in0.0 mm 0.04 in1.0 mm
06:25 PM 9.7°F-12.4°C -18.4°F-28.0°C 26% Calm Calm -- 30.45 in1031.2 mb - 0.00 in0.0 mm 0.04 in1.0 mm
06:30 PM 9.7°F-12.4°C -20.0°F-28.9°C 24% Calm Calm -- 30.45 in1031.2 mb - 0.00 in0.0 mm 0.04 in1.0 mm
06:35 PM 9.5°F-12.5°C -18.5°F-28.1°C 26% Calm Calm -- 30.45 in1031.2 mb - 0.00 in0.0 mm 0.04 in1.0 mm
06:40 PM 9.5°F-12.5°C -18.6°F-28.1°C 26% Calm Calm -- 30.45 in1031.2 mb - 0.00 in0.0 mm 0.04 in1.0 mm
06:45 PM 9.7°F-12.4°C -18.4°F-28.0°C 26% Calm Calm -- 30.45 in1031.2 mb - 0.00 in0.0 mm 0.04 in1.0 mm
06:50 PM 9.7°F-12.4°C -20.0°F-28.9°C 24% Calm Calm -- 30.45 in1031.2 mb - 0.00 in0.0 mm 0.04 in1.0 mm
06:55 PM 9.7°F-12.4°C -20.0°F-28.9°C 24% Calm Calm -- 30.45 in1031.2 mb - 0.00 in0.0 mm 0.04 in1.0 mm
07:00 PM 9.7°F-12.4°C -20.0°F-28.9°C 24% Calm Calm -- 30.45 in1031.2 mb - 0.00 in0.0 mm 0.04 in1.0 mm
07:10 PM 9.5°F-12.5°C -21.8°F-29.9°C 22% Calm Calm -- 30.45 in1031.2 mb - 0.00 in0.0 mm 0.04 in1.0 mm
07:15 PM 9.5°F-12.5°C -21.8°F-29.9°C 22% Calm Calm -- 30.45 in1031.2 mb - 0.00 in0.0 mm 0.04 in1.0 mm
07:20 PM 9.5°F-12.5°C -21.8°F-29.9°C 22% Calm Calm -- 30.45 in1031.2 mb - 0.00 in0.0 mm 0.04 in1.0 mm
07:25 PM 9.5°F-12.5°C -23.6°F-30.9°C 20% Calm Calm -- 30.45 in1031.2 mb - 0.00 in0.0 mm 0.04 in1.0 mm
07:30 PM 9.5°F-12.5°C -23.6°F-30.9°C 20% Calm Calm -- 30.45 in1031.2 mb - 0.00 in0.0 mm 0.04 in1.0 mm
07:35 PM 9.5°F-12.5°C -23.6°F-30.9°C 20% Calm Calm -- 30.45 in1031.2 mb - 0.00 in0.0 mm 0.04 in1.0 mm
07:40 PM 9.5°F-12.5°C -23.6°F-30.9°C 20% Calm Calm -- 30.45 in1031.2 mb - 0.00 in0.0 mm 0.04 in1.0 mm
07:45 PM 9.7°F-12.4°C -23.4°F-30.8°C 20% Calm Calm -- 30.45 in1031.2 mb - 0.00 in0.0 mm 0.04 in1.0 mm
07:50 PM 9.7°F-12.4°C -25.4°F-31.9°C 18% Calm Calm -- 30.45 in1031.2 mb - 0.00 in0.0 mm 0.04 in1.0 mm
07:55 PM 9.7°F-12.4°C -25.4°F-31.9°C 18% Calm Calm -- 30.45 in1031.2 mb - 0.00 in0.0 mm 0.04 in1.0 mm
08:00 PM 9.7°F-12.4°C -25.4°F-31.9°C 18% Calm Calm -- 30.45 in1031.2 mb - 0.00 in0.0 mm 0.04 in1.0 mm
08:10 PM 10.0°F-12.2°C -29.8°F-34.3°C 14% Calm Calm -- 30.53 in1033.9 mb - 0.00 in0.0 mm 0.04 in1.0 mm
08:15 PM 9.9°F-12.3°C -25.3°F-31.8°C 18% Calm Calm -- 30.53 in1033.9 mb - 0.00 in0.0 mm 0.04 in1.0 mm
08:20 PM 9.9°F-12.3°C -25.3°F-31.8°C 18% Calm Calm -- 30.53 in1033.9 mb - 0.00 in0.0 mm 0.04 in1.0 mm
08:25 PM 9.9°F-12.3°C -27.5°F-33.1°C 16% Calm Calm -- 30.53 in1033.9 mb - 0.00 in0.0 mm 0.04 in1.0 mm
08:30 PM 9.9°F-12.3°C -25.3°F-31.8°C 18% Calm Calm -- 30.53 in1033.9 mb - 0.00 in0.0 mm 0.04 in1.0 mm
08:35 PM 9.9°F-12.3°C -27.5°F-33.1°C 16% Calm Calm -- 30.53 in1033.9 mb - 0.00 in0.0 mm 0.04 in1.0 mm
08:40 PM 9.9°F-12.3°C -27.5°F-33.1°C 16% Calm Calm -- 30.53 in1033.9 mb - 0.00 in0.0 mm 0.04 in1.0 mm
08:45 PM 9.9°F-12.3°C -28.7°F-33.7°C 15% Calm Calm -- 30.53 in1033.9 mb - 0.00 in0.0 mm 0.04 in1.0 mm
08:50 PM 10.0°F-12.2°C -29.8°F-34.3°C 14% Calm Calm -- 30.53 in1033.9 mb - 0.00 in0.0 mm 0.04 in1.0 mm
08:55 PM 10.0°F-12.2°C -29.8°F-34.3°C 14% Calm Calm -- 30.48 in1032.2 mb - 0.00 in0.0 mm 0.04 in1.0 mm
09:00 PM 10.0°F-12.2°C -29.8°F-34.3°C 14% Calm Calm -- 30.48 in1032.2 mb - 0.00 in0.0 mm 0.04 in1.0 mm
09:10 PM 10.0°F-12.2°C -31.1°F-35.1°C 13% Calm Calm -- 30.48 in1032.2 mb - 0.00 in0.0 mm 0.04 in1.0 mm
09:15 PM 10.0°F-12.2°C -22.2°F-30.1°C 21% Calm Calm -- 30.48 in1032.2 mb - 0.00 in0.0 mm 0.04 in1.0 mm
09:20 PM 10.0°F-12.2°C -22.2°F-30.1°C 21% Calm Calm -- 30.48 in1032.2 mb - 0.00 in0.0 mm 0.04 in1.0 mm
09:25 PM 10.0°F-12.2°C -18.1°F-27.8°C 26% Calm Calm -- 30.48 in1032.2 mb - 0.00 in0.0 mm 0.04 in1.0 mm
09:30 PM 10.0°F-12.2°C -16.7°F-27.1°C 28% Calm Calm -- 30.48 in1032.2 mb - 0.00 in0.0 mm 0.04 in1.0 mm
09:35 PM 10.0°F-12.2°C -16.7°F-27.1°C 28% Calm Calm -- 30.48 in1032.2 mb - 0.00 in0.0 mm 0.04 in1.0 mm
09:40 PM 10.0°F-12.2°C -16.7°F-27.1°C 28% Calm Calm -- 30.48 in1032.2 mb - 0.00 in0.0 mm 0.04 in1.0 mm
09:45 PM 10.0°F-12.2°C -20.5°F-29.2°C 23% Calm Calm -- 30.48 in1032.2 mb - 0.00 in0.0 mm 0.04 in1.0 mm
09:50 PM 9.9°F-12.3°C -18.3°F-27.9°C 26% Calm Calm -- 30.48 in1032.2 mb - 0.00 in0.0 mm 0.04 in1.0 mm
09:55 PM 9.9°F-12.3°C -16.8°F-27.1°C 28% Calm Calm -- 30.48 in1032.2 mb - 0.00 in0.0 mm 0.04 in1.0 mm
10:00 PM 9.9°F-12.3°C -16.8°F-27.1°C 28% Calm Calm -- 30.48 in1032.2 mb - 0.00 in0.0 mm 0.04 in1.0 mm
10:10 PM 9.9°F-12.3°C -18.3°F-27.9°C 26% Calm Calm -- 30.53 in1033.9 mb - 0.00 in0.0 mm 0.04 in1.0 mm
10:15 PM 9.9°F-12.3°C -14.8°F-26.0°C 31% Calm Calm -- 30.48 in1032.2 mb - 0.00 in0.0 mm 0.04 in1.0 mm
10:20 PM 9.9°F-12.3°C -15.5°F-26.4°C 30% Calm Calm -- 30.48 in1032.2 mb - 0.00 in0.0 mm 0.04 in1.0 mm
10:25 PM 9.9°F-12.3°C -16.8°F-27.1°C 28% Calm Calm -- 30.48 in1032.2 mb - 0.00 in0.0 mm 0.04 in1.0 mm
10:30 PM 9.9°F-12.3°C -18.3°F-27.9°C 26% Calm Calm -- 30.48 in1032.2 mb - 0.00 in0.0 mm 0.04 in1.0 mm
10:35 PM 9.9°F-12.3°C -16.8°F-27.1°C 28% Calm Calm -- 30.48 in1032.2 mb - 0.00 in0.0 mm 0.04 in1.0 mm
10:40 PM 9.9°F-12.3°C -16.1°F-26.7°C 29% Calm Calm -- 30.48 in1032.2 mb - 0.00 in0.0 mm 0.04 in1.0 mm
10:45 PM 9.9°F-12.3°C -14.8°F-26.0°C 31% Calm Calm -- 30.48 in1032.2 mb - 0.00 in0.0 mm 0.04 in1.0 mm
10:50 PM 9.9°F-12.3°C -13.0°F-25.0°C 34% Calm Calm -- 30.48 in1032.2 mb - 0.00 in0.0 mm 0.04 in1.0 mm
10:55 PM 9.9°F-12.3°C -14.8°F-26.0°C 31% Calm Calm -- 30.48 in1032.2 mb - 0.00 in0.0 mm 0.04 in1.0 mm
11:00 PM 9.7°F-12.4°C -15.6°F-26.4°C 30% Calm Calm -- 30.52 in1033.5 mb - 0.00 in0.0 mm 0.04 in1.0 mm
11:10 PM 9.7°F-12.4°C -16.3°F-26.8°C 29% Calm Calm -- 30.53 in1033.9 mb - 0.00 in0.0 mm 0.04 in1.0 mm
11:15 PM 9.7°F-12.4°C -18.4°F-28.0°C 26% Calm Calm -- 30.53 in1033.9 mb - 0.00 in0.0 mm 0.04 in1.0 mm
11:20 PM 9.7°F-12.4°C -18.4°F-28.0°C 26% Calm Calm -- 30.48 in1032.2 mb - 0.00 in0.0 mm 0.04 in1.0 mm
11:25 PM 9.7°F-12.4°C -18.4°F-28.0°C 26% Calm Calm -- 30.48 in1032.2 mb - 0.00 in0.0 mm 0.04 in1.0 mm
11:30 PM 9.5°F-12.5°C -16.4°F-26.9°C 29% Calm Calm -- 30.48 in1032.2 mb - 0.00 in0.0 mm 0.04 in1.0 mm
11:35 PM 9.5°F-12.5°C -16.4°F-26.9°C 29% Calm Calm -- 30.48 in1032.2 mb - 0.00 in0.0 mm 0.04 in1.0 mm
11:40 PM 9.5°F-12.5°C -18.6°F-28.1°C 26% Calm Calm -- 30.48 in1032.2 mb - 0.00 in0.0 mm 0.04 in1.0 mm
11:45 PM 9.5°F-12.5°C -18.6°F-28.1°C 26% Calm Calm -- 30.48 in1032.2 mb - 0.00 in0.0 mm 0.04 in1.0 mm
11:50 PM 9.5°F-12.5°C -18.6°F-28.1°C 26% Calm Calm -- 30.48 in1032.2 mb - 0.00 in0.0 mm 0.04 in1.0 mm
11:55 PM 9.5°F-12.5°C -20.1°F-28.9°C 24% Calm Calm -- 30.48 in1032.2 mb - 0.00 in0.0 mm 0.04 in1.0 mm